Impacts METAR Board
IDs:

KORD - Chicago/O'Hare Intl, IL, US

Updated at: 2000 UTC 08 Feb 2023
Potential Impact None Slight Moderate High
Time 08/08Z 08/09Z 08/10Z 08/11Z 08/12Z 08/13Z 08/14Z 08/15Z 08/16Z 08/17Z 08/18Z 08/19Z 08/20Z
Temp29 29 28 28 27 28 28 31 35 38 40 43 44
Dewpt23 23 23 22 22 22 23 26 27 27 27 27 26
Altim30.22 30.23 30.26 30.25 30.25 30.25 30.26 30.28 30.27 30.25 30.22 30.20 30.18
VIS10 10 10 10 10 10 10 10 10 10 10 10 10
CIG-- -- -- -- -- 250 250 250 250 240 250 250 250
CoverFEWFEWFEWFEWSCTBKNBKNOVCOVCOVCBKNOVCBKN
FltCatVFRVFRVFRVFRVFRVFRVFRVFRVFRVFRVFRVFRVFR
WX--------------------------
WDir2802402600270002100150210130180
WSpd3 4 3 0 3 0 0 3 0 5 3 3 3
WGst-- -- -- -- -- -- -- -- -- -- -- -- --
Raw hourly METARs
KORD 080751Z 28003KT 10SM FEW250 M02/M05 A3022 RMK AO2 SLP240 T10171050
KORD 080851Z 24004KT 10SM FEW250 M02/M05 A3023 RMK AO2 SLP245 T10171050 53008
KORD 080951Z 26003KT 10SM FEW250 M02/M05 A3026 RMK AO2 SLP253 T10221050
KORD 081051Z 00000KT 10SM FEW250 M02/M06 A3025 RMK AO2 SLP251 T10221056
KORD 081151Z 27003KT 10SM SCT250 M03/M06 A3025 RMK AO2 SLP251 T10281056 10000 21028 50005
KORD 081251Z 00000KT 10SM FEW150 BKN250 M02/M06 A3025 RMK AO2 SLP250 T10221056
KORD 081351Z 00000KT 10SM FEW150 BKN250 M02/M05 A3026 RMK AO2 SLP256 T10221050
KORD 081451Z 21003KT 10SM OVC250 M01/M03 A3028 RMK AO2 SLP261 T10061033 53010
KORD 081551Z 00000KT 10SM OVC250 02/M03 A3027 RMK AO2 SLP256 T00171028
KORD 081651Z 15005KT 10SM OVC240 03/M03 A3025 RMK AO2 SLP251 T00331028
KORD 081751Z 21003KT 10SM BKN250 04/M03 A3022 RMK AO2 SLP241 T00441028 10044 21028 58019
KORD 081851Z 13003KT 10SM FEW210 OVC250 06/M03 A3020 RMK AO2 SLP233 T00611028
KORD 081951Z 18003KT 10SM SCT230 BKN250 07/M03 A3018 RMK AO2 SLP224 T00671033



Page loaded:  20:35 UTC  |   12:35 PM Pacific  |   01:35 PM Mountain  |   02:35 PM Central  |   03:35 PM Eastern

 

ADVISORIES

FORECASTS

FORECASTS

OBSERVATIONS

USER TOOLS

ABOUT US